Time;durP1;ratioP1;P1;durP2;ratioP2;P2;SDS_P1;SDS_P2;PMS_P1;PMS_P2;Temp;Humidity;BMP_temperature;BMP_pressure;BME280_temperature;BME280_humidity;BME280_pressure;Samples;Min_cycle;Max_cycle;Signal;HPM_P1;HPM_P2
2022/02/27 00:00:18;;;;;;;8.43;3.72;;;;;;;0.75;64.94;100376.28;2623888;54;20033;-69
2022/02/27 00:02:50;;;;;;;8.02;3.67;;;;;;;0.74;65.01;100374.59;2625030;39;20434;-67
2022/02/27 00:05:20;;;;;;;8.10;3.97;;;;;;;0.79;64.87;100371.72;2625121;54;20566;-69
2022/02/27 00:07:49;;;;;;;8.35;3.70;;;;;;;0.70;64.47;100371.34;2625001;54;20019;-67
2022/02/27 00:10:21;;;;;;;9.73;4.22;;;;;;;0.62;64.72;100381.38;2625515;54;20026;-68
2022/02/27 00:12:51;;;;;;;9.02;4.15;;;;;;;0.56;65.02;100378.28;2625547;54;20035;-69
2022/02/27 00:15:21;;;;;;;9.73;4.22;;;;;;;0.51;64.71;100373.34;2625598;54;20045;-67
2022/02/27 00:17:53;;;;;;;8.30;4.45;;;;;;;0.49;65.51;100370.03;2625363;54;20038;-71
2022/02/27 00:20:23;;;;;;;14.32;5.70;;;;;;;0.52;65.31;100380.22;2624651;39;20438;-68
2022/02/27 00:22:58;;;;;;;12.82;5.22;;;;;;;0.68;65.45;100369.75;2624789;46;20061;-68
2022/02/27 00:25:28;;;;;;;12.75;5.05;;;;;;;0.73;65.49;100368.56;2623816;54;20030;-67
2022/02/27 00:27:57;;;;;;;11.25;4.88;;;;;;;0.72;65.22;100369.47;2623389;54;20022;-68
2022/02/27 00:30:27;;;;;;;8.60;4.45;;;;;;;0.63;64.99;100369.19;2623256;54;20038;-69
2022/02/27 00:32:59;;;;;;;14.88;5.50;;;;;;;0.60;65.17;100361.56;2623304;54;20022;-68
2022/02/27 00:35:30;;;;;;;11.75;5.35;;;;;;;0.54;65.17;100367.16;2624456;39;20258;-68
2022/02/27 00:38:00;;;;;;;9.77;4.65;;;;;;;0.46;65.54;100359.78;2625055;47;20046;-68
2022/02/27 00:40:30;;;;;;;14.02;5.35;;;;;;;0.56;65.65;100365.28;2624716;54;20042;-69
2022/02/27 00:43:01;;;;;;;11.55;4.75;;;;;;;0.62;65.96;100364.91;2625165;47;20058;-70
2022/02/27 00:45:31;;;;;;;11.93;5.45;;;;;;;0.62;65.39;100370.97;2625497;54;20030;-68
2022/02/27 00:48:03;;;;;;;11.07;4.50;;;;;;;0.51;65.51;100360.34;2625717;54;20134;-67
2022/02/27 00:50:33;;;;;;;12.55;4.75;;;;;;;0.51;65.71;100355.13;2625863;54;20022;-68
2022/02/27 00:53:02;;;;;;;11.25;5.05;;;;;;;0.56;65.67;100353.09;2625567;46;20037;-67
2022/02/27 00:55:32;;;;;;;7.90;4.97;;;;;;;0.60;65.66;100354.59;2625021;54;20042;-68
2022/02/27 00:58:02;;;;;;;11.15;5.10;;;;;;;0.67;65.61;100355.91;2624845;54;20134;-68
2022/02/27 01:00:32;;;;;;;9.70;5.03;;;;;;;0.76;65.61;100356.28;2624830;47;20044;-68
2022/02/27 01:03:06;;;;;;;8.80;4.70;;;;;;;0.78;65.63;100355.28;2624941;46;20069;-68
2022/02/27 01:05:35;;;;;;;12.20;4.93;;;;;;;0.85;65.55;100343.53;2623562;46;20054;-68
2022/02/27 01:08:05;;;;;;;13.50;4.88;;;;;;;0.87;65.55;100349.50;2625548;54;20041;-68
2022/02/27 01:10:36;;;;;;;11.70;4.95;;;;;;;0.90;65.39;100345.88;2625727;54;20046;-68
2022/02/27 01:13:05;;;;;;;11.98;5.13;;;;;;;0.92;65.24;100344.00;2625642;54;20033;-68
2022/02/27 01:15:35;;;;;;;9.20;4.65;;;;;;;0.95;65.45;100351.66;2624958;54;20130;-68
2022/02/27 01:18:08;;;;;;;8.52;4.10;;;;;;;0.96;65.01;100351.53;2626308;46;20053;-68
2022/02/27 01:20:38;;;;;;;11.57;4.03;;;;;;;0.97;65.13;100345.38;2624941;54;20026;-67
2022/02/27 01:23:07;;;;;;;10.02;4.00;;;;;;;0.96;64.89;100348.09;2625183;54;20030;-68
2022/02/27 01:25:37;;;;;;;10.77;4.10;;;;;;;0.89;64.81;100338.97;2625150;54;20026;-67
2022/02/27 01:28:07;;;;;;;8.68;4.47;;;;;;;0.85;64.63;100343.53;2624875;54;20035;-68
2022/02/27 01:30:38;;;;;;;8.27;4.00;;;;;;;0.72;64.33;100342.59;2625666;54;20554;-67
2022/02/27 01:33:11;;;;;;;9.95;4.00;;;;;;;0.62;64.97;100338.91;2624722;47;20034;-67
2022/02/27 01:35:41;;;;;;;12.27;4.18;;;;;;;0.55;64.92;100340.19;2625394;54;20034;-67
2022/02/27 01:38:10;;;;;;;14.23;5.40;;;;;;;0.48;65.05;100334.50;2625867;53;20018;-67
2022/02/27 01:40:40;;;;;;;8.80;4.60;;;;;;;0.44;65.29;100328.63;2626776;39;20411;-67
2022/02/27 01:43:09;;;;;;;12.13;4.63;;;;;;;0.36;65.39;100323.03;2624996;50;20034;-67
2022/02/27 01:45:39;;;;;;;11.40;4.93;;;;;;;0.30;65.74;100327.78;2623846;54;20030;-67
2022/02/27 01:48:12;;;;;;;9.30;4.53;;;;;;;0.24;65.99;100321.16;2624003;47;20030;-67
2022/02/27 01:50:42;;;;;;;11.65;4.88;;;;;;;0.24;66.08;100321.16;2624775;54;20045;-67
2022/02/27 01:53:13;;;;;;;11.63;5.30;;;;;;;0.32;66.45;100318.94;2624363;46;20030;-67
2022/02/27 01:55:43;;;;;;;11.45;4.90;;;;;;;0.38;66.51;100321.19;2624860;54;20038;-67
2022/02/27 01:58:13;;;;;;;11.38;5.18;;;;;;;0.40;66.25;100315.91;2626474;39;20326;-67
2022/02/27 02:00:44;;;;;;;11.05;4.97;;;;;;;0.38;65.83;100313.41;2624567;47;20082;-67
2022/02/27 02:03:17;;;;;;;11.25;4.78;;;;;;;0.36;66.22;100312.63;2624217;47;20042;-67
2022/02/27 02:05:46;;;;;;;9.50;4.50;;;;;;;0.37;65.97;100313.50;2624717;54;20026;-68
2022/02/27 02:08:17;;;;;;;13.80;4.70;;;;;;;0.36;66.00;100311.81;2624825;54;20034;-68
2022/02/27 02:10:48;;;;;;;9.20;4.35;;;;;;;0.29;65.78;100313.13;2624653;47;20129;-67
2022/02/27 02:13:18;;;;;;;9.32;4.28;;;;;;;0.19;65.82;100312.81;2622439;47;20119;-68
2022/02/27 02:15:58;;;;;;;8.68;3.65;;;;;;;0.03;66.15;100309.41;2623432;47;20038;-67
2022/02/27 02:18:40;;;;;;;11.95;3.72;;;;;;;-0.10;66.31;100320.53;2623763;54;20023;-67
2022/02/27 02:21:12;;;;;;;8.07;3.75;;;;;;;-0.12;66.43;100317.19;2623964;54;20023;-67
2022/02/27 02:23:42;;;;;;;8.80;3.38;;;;;;;-0.12;66.88;100312.00;2623910;54;20026;-67
2022/02/27 02:26:16;;;;;;;13.30;3.35;;;;;;;-0.14;66.44;100305.19;2623564;54;20026;-67
2022/02/27 02:28:46;;;;;;;6.78;3.40;;;;;;;-0.13;66.60;100307.69;2623350;54;20038;-67
2022/02/27 02:31:15;;;;;;;8.90;3.90;;;;;;;-0.07;67.16;100309.13;2623330;54;20034;-67
2022/02/27 02:33:45;;;;;;;8.88;3.45;;;;;;;-0.03;66.88;100305.41;2623315;51;20094;-67
2022/02/27 02:36:18;;;;;;;9.90;3.88;;;;;;;-0.03;66.83;100300.22;2622790;54;20118;-67
2022/02/27 02:38:48;;;;;;;7.43;2.88;;;;;;;-0.10;66.06;100310.13;2623648;54;20138;-67
2022/02/27 02:41:17;;;;;;;8.38;3.55;;;;;;;-0.17;66.52;100313.16;2622294;47;20035;-67
2022/02/27 02:43:48;;;;;;;9.30;3.50;;;;;;;-0.22;66.79;100313.41;2622118;47;20078;-67
2022/02/27 02:46:18;;;;;;;5.75;3.30;;;;;;;-0.28;66.89;100311.19;2623897;54;20026;-67
2022/02/27 02:48:48;;;;;;;7.47;3.22;;;;;;;-0.33;66.95;100316.66;2624194;47;20037;-68
2022/02/27 02:51:44;;;;;;;6.63;3.03;;;;;;;-0.35;67.13;100309.84;2623892;54;20026;-68
2022/02/27 02:54:14;;;;;;;10.38;3.38;;;;;;;-0.34;67.27;100304.56;2623505;51;20026;-66
2022/02/27 02:56:44;;;;;;;8.30;3.40;;;;;;;-0.36;67.34;100302.97;2624434;39;20435;-67
2022/02/27 02:59:15;;;;;;;10.80;3.63;;;;;;;-0.35;67.62;100302.06;2623917;54;20030;-67
2022/02/27 03:01:44;;;;;;;11.60;4.35;;;;;;;-0.37;67.35;100299.56;2624038;54;20034;-67
2022/02/27 03:04:14;;;;;;;6.47;3.35;;;;;;;-0.33;67.84;100295.84;2623438;54;20045;-66
2022/02/27 03:06:46;;;;;;;10.63;3.88;;;;;;;-0.32;67.78;100288.88;2623894;54;20034;-67
2022/02/27 03:09:17;;;;;;;8.18;3.40;;;;;;;-0.31;67.68;100294.00;2623904;54;20045;-68
2022/02/27 03:11:48;;;;;;;6.65;3.15;;;;;;;-0.31;67.39;100294.00;2623507;54;20277;-67
2022/02/27 03:14:18;;;;;;;9.68;3.17;;;;;;;-0.24;67.60;100294.50;2623582;47;20031;-67
2022/02/27 03:16:47;;;;;;;8.48;3.22;;;;;;;-0.19;67.56;100297.66;2623679;54;20038;-67
2022/02/27 03:19:17;;;;;;;7.57;2.83;;;;;;;-0.15;67.51;100293.13;2624018;54;20030;-67
2022/02/27 03:21:49;;;;;;;7.72;2.72;;;;;;;-0.24;67.48;100285.84;2624008;54;20031;-66
2022/02/27 03:24:19;;;;;;;6.65;2.65;;;;;;;-0.27;67.09;100289.47;2623268;54;20045;-67
2022/02/27 03:26:48;;;;;;;10.02;3.53;;;;;;;-0.28;67.74;100288.63;2623464;54;20034;-68
2022/02/27 03:29:18;;;;;;;5.85;2.72;;;;;;;-0.21;67.76;100289.09;2622812;54;20034;-68
2022/02/27 03:31:48;;;;;;;6.50;3.97;;;;;;;-0.18;67.58;100281.13;2622907;54;20034;-68
2022/02/27 03:34:18;;;;;;;7.63;2.95;;;;;;;-0.14;67.31;100281.78;2622435;47;20019;-68
2022/02/27 03:36:50;;;;;;;8.55;2.75;;;;;;;-0.13;67.47;100286.88;2624233;54;20034;-68
2022/02/27 03:39:20;;;;;;;5.15;2.60;;;;;;;-0.10;67.31;100284.13;2624064;54;20565;-67
2022/02/27 03:41:49;;;;;;;7.70;3.20;;;;;;;-0.12;67.17;100274.75;2624361;54;20541;-67
2022/02/27 03:44:19;;;;;;;8.63;3.38;;;;;;;-0.15;66.97;100280.97;2624723;39;20465;-69
2022/02/27 03:46:49;;;;;;;9.07;3.28;;;;;;;-0.15;67.23;100274.94;2623047;39;20433;-69
2022/02/27 03:49:18;;;;;;;11.50;4.40;;;;;;;-0.24;67.06;100273.69;2622704;54;20034;-68
2022/02/27 03:51:50;;;;;;;8.90;4.15;;;;;;;-0.26;67.18;100276.38;2623931;47;20022;-67
2022/02/27 03:54:21;;;;;;;8.85;4.25;;;;;;;-0.31;66.85;100273.19;2624679;54;20031;-67
2022/02/27 03:56:51;;;;;;;10.85;4.22;;;;;;;-0.39;67.06;100270.19;2624330;39;20465;-69
2022/02/27 03:59:20;;;;;;;9.90;3.05;;;;;;;-0.38;67.54;100273.63;2624214;54;20540;-66
2022/02/27 04:01:50;;;;;;;7.20;2.72;;;;;;;-0.42;67.05;100270.38;2624786;54;20031;-67
2022/02/27 04:04:21;;;;;;;7.32;3.00;;;;;;;-0.45;67.12;100275.75;2625288;54;20023;-66
2022/02/27 04:06:53;;;;;;;10.98;3.00;;;;;;;-0.45;67.16;100272.28;2624981;47;20027;-67
2022/02/27 04:09:23;;;;;;;14.05;2.80;;;;;;;-0.46;67.50;100275.81;2624946;54;20034;-69
2022/02/27 04:11:52;;;;;;;6.40;2.60;;;;;;;-0.45;67.35;100277.50;2625162;54;20027;-66
2022/02/27 04:14:23;;;;;;;5.13;2.97;;;;;;;-0.46;67.75;100268.88;2624689;54;20038;-69
2022/02/27 04:16:53;;;;;;;8.60;2.50;;;;;;;-0.44;67.64;100274.84;2625505;54;20027;-68
2022/02/27 04:19:25;;;;;;;6.88;2.45;;;;;;;-0.43;67.31;100273.06;2624750;54;20036;-67
2022/02/27 04:21:57;;;;;;;6.82;2.85;;;;;;;-0.39;67.45;100272.81;2624437;47;20034;-67
2022/02/27 04:24:26;;;;;;;9.20;3.05;;;;;;;-0.39;67.33;100270.19;2625194;54;20038;-68
2022/02/27 04:26:58;;;;;;;10.88;2.80;;;;;;;-0.41;67.28;100272.06;2624480;46;20066;-67
2022/02/27 04:29:28;;;;;;;5.35;2.40;;;;;;;-0.41;67.60;100272.06;2624638;54;20053;-67
2022/02/27 04:31:57;;;;;;;5.75;2.63;;;;;;;-0.32;67.48;100274.13;2624162;54;20045;-67
2022/02/27 04:34:29;;;;;;;9.10;2.70;;;;;;;-0.31;67.23;100273.19;2623780;46;20548;-67
2022/02/27 04:37:01;;;;;;;6.55;3.30;;;;;;;-0.31;67.67;100269.78;2624024;54;20081;-67
2022/02/27 04:39:31;;;;;;;6.72;2.75;;;;;;;-0.31;67.02;100269.78;2623939;51;20046;-67
2022/02/27 04:42:00;;;;;;;9.18;2.88;;;;;;;-0.42;67.40;100272.97;2625716;39;20485;-68
2022/02/27 04:44:32;;;;;;;9.57;3.20;;;;;;;-0.39;67.26;100272.81;2623688;51;20117;-66
2022/02/27 04:47:02;;;;;;;7.95;3.30;;;;;;;-0.42;67.38;100272.13;2623608;52;20102;-69
2022/02/27 04:49:34;;;;;;;8.93;3.47;;;;;;;-0.40;67.59;100272.91;2624969;54;20023;-67
2022/02/27 04:52:06;;;;;;;8.75;3.22;;;;;;;-0.32;67.69;100273.31;2623871;54;20046;-67
2022/02/27 04:54:37;;;;;;;11.50;3.28;;;;;;;-0.36;67.03;100272.63;2624239;54;20037;-67
2022/02/27 04:57:09;;;;;;;6.93;3.22;;;;;;;-0.53;67.40;100273.59;2624688;54;20996;-66
2022/02/27 04:59:40;;;;;;;5.82;2.80;;;;;;;-0.61;67.55;100262.78;2625982;54;20090;-66
2022/02/27 05:02:13;;;;;;;7.10;2.78;;;;;;;-0.59;67.91;100263.53;2625860;47;20034;-67
2022/02/27 05:04:43;;;;;;;7.18;3.33;;;;;;;-0.52;67.63;100267.47;2625673;54;20103;-67
2022/02/27 05:07:15;;;;;;;5.05;3.05;;;;;;;-0.56;67.51;100262.53;2625690;54;20022;-67
2022/02/27 05:09:44;;;;;;;7.00;3.38;;;;;;;-0.51;67.50;100261.34;2627872;39;20437;-67
2022/02/27 05:12:14;;;;;;;7.32;3.00;;;;;;;-0.55;67.56;100266.78;2626776;54;20560;-68
2022/02/27 05:14:44;;;;;;;9.68;3.08;;;;;;;-0.63;67.66;100269.81;2625557;54;20037;-67
2022/02/27 05:17:34;;;;;;;9.35;3.70;;;;;;;-0.55;67.72;100269.38;2622978;54;20065;-67
2022/02/27 05:20:05;;;;;;;12.05;3.10;;;;;;;-0.54;67.71;100269.28;2617917;54;20026;-67
2022/02/27 05:22:37;;;;;;;9.20;2.92;;;;;;;-0.58;67.69;100266.97;2617439;47;20026;-66
2022/02/27 05:25:07;;;;;;;10.90;3.38;;;;;;;-0.58;67.61;100267.78;2617102;47;20069;-66
2022/02/27 05:27:37;;;;;;;7.85;2.70;;;;;;;-0.61;67.17;100265.38;2618594;39;20421;-66
2022/02/27 05:30:08;;;;;;;7.90;3.08;;;;;;;-0.73;67.90;100268.66;2620444;47;20553;-67
2022/02/27 05:32:38;;;;;;;8.80;3.47;;;;;;;-0.78;67.60;100265.47;2625622;54;20037;-67
2022/02/27 05:35:08;;;;;;;9.57;2.97;;;;;;;-0.76;68.13;100268.84;2625226;54;20022;-66
2022/02/27 05:37:40;;;;;;;8.45;3.28;;;;;;;-0.70;68.32;100270.25;2624715;54;20050;-66
2022/02/27 05:40:11;;;;;;;8.43;3.30;;;;;;;-0.70;68.45;100278.88;2618621;54;20034;-66
2022/02/27 05:42:41;;;;;;;14.98;3.60;;;;;;;-0.63;68.28;100272.41;2618861;54;20086;-66
2022/02/27 05:45:12;;;;;;;9.27;3.08;;;;;;;-0.59;67.87;100278.28;2618389;54;20049;-67
2022/02/27 05:47:41;;;;;;;8.63;3.33;;;;;;;-0.53;68.27;100278.78;2617103;47;20030;-67
2022/02/27 05:50:12;;;;;;;9.50;3.13;;;;;;;-0.54;68.13;100279.69;2617116;54;20035;-67
2022/02/27 05:52:44;;;;;;;6.88;3.38;;;;;;;-0.59;67.62;100280.88;2618407;39;20421;-68
2022/02/27 05:55:14;;;;;;;9.25;4.18;;;;;;;-0.60;68.32;100280.03;2617833;54;20038;-67
2022/02/27 05:57:43;;;;;;;7.90;3.20;;;;;;;-0.59;67.91;100288.66;2617529;54;20039;-67
2022/02/27 06:00:14;;;;;;;6.05;3.25;;;;;;;-0.63;68.09;100280.22;2617287;54;20125;-66
2022/02/27 06:02:43;;;;;;;6.97;3.72;;;;;;;-0.64;68.02;100282.91;2617252;54;20042;-66
2022/02/27 06:05:14;;;;;;;10.30;3.42;;;;;;;-0.69;67.89;100290.13;2617842;54;20039;-66
2022/02/27 06:07:46;;;;;;;8.15;3.60;;;;;;;-0.74;68.47;100285.16;2617184;47;20034;-66
2022/02/27 06:10:16;;;;;;;7.75;3.33;;;;;;;-0.77;68.30;100288.78;2618162;54;20038;-66
2022/02/27 06:12:49;;;;;;;9.02;3.50;;;;;;;-0.76;68.58;100287.84;2617980;54;20038;-66
2022/02/27 06:15:19;;;;;;;9.93;4.20;;;;;;;-0.75;68.50;100283.47;2617894;54;20599;-65
2022/02/27 06:17:49;;;;;;;8.15;3.58;;;;;;;-0.73;68.84;100283.41;2617409;54;20031;-66
2022/02/27 06:20:18;;;;;;;8.80;4.15;;;;;;;-0.68;68.55;100290.03;2617320;54;20510;-65
2022/02/27 06:22:52;;;;;;;7.28;4.07;;;;;;;-0.66;68.46;100289.94;2617847;54;20042;-65
2022/02/27 06:25:22;;;;;;;9.47;3.87;;;;;;;-0.70;68.60;100289.25;2617154;54;20142;-66
2022/02/27 06:27:52;;;;;;;5.90;3.63;;;;;;;-0.71;68.64;100295.38;2617119;54;20061;-66
2022/02/27 06:30:24;;;;;;;6.78;3.70;;;;;;;-0.67;68.68;100293.44;2617499;54;20565;-66
2022/02/27 06:32:54;;;;;;;7.95;3.92;;;;;;;-0.67;68.63;100296.03;2618094;54;20039;-66
2022/02/27 06:35:26;;;;;;;11.57;4.18;;;;;;;-0.66;68.38;100302.91;2617953;54;20557;-66
2022/02/27 06:37:58;;;;;;;9.82;4.63;;;;;;;-0.69;68.31;100295.31;2618582;54;20049;-66
2022/02/27 06:40:28;;;;;;;7.43;4.20;;;;;;;-0.64;68.74;100303.69;2617848;54;20034;-67
2022/02/27 06:42:58;;;;;;;9.85;4.03;;;;;;;-0.59;68.77;100301.66;2617952;54;20038;-66
2022/02/27 06:45:27;;;;;;;5.68;3.55;;;;;;;-0.53;69.25;100302.16;2618313;54;20031;-66
2022/02/27 06:47:57;;;;;;;7.55;3.67;;;;;;;-0.42;69.32;100309.34;2617794;54;20045;-69
2022/02/27 06:50:27;;;;;;;10.23;4.15;;;;;;;-0.31;69.06;100311.34;2617643;54;20566;-67
2022/02/27 06:52:59;;;;;;;9.93;4.43;;;;;;;-0.22;69.33;100313.41;2617785;54;20073;-66
2022/02/27 06:55:29;;;;;;;11.98;4.90;;;;;;;-0.15;69.28;100319.94;2617822;54;20038;-67
2022/02/27 06:57:59;;;;;;;8.98;4.45;;;;;;;-0.05;68.73;100328.06;2617963;54;20063;-66
2022/02/27 07:00:28;;;;;;;12.43;4.43;;;;;;;0.02;69.14;100323.34;2618035;54;20114;-66
2022/02/27 07:02:58;;;;;;;8.93;3.75;;;;;;;0.10;68.83;100324.56;2617993;54;20043;-66
2022/02/27 07:05:31;;;;;;;12.30;4.68;;;;;;;0.19;69.16;100318.84;2617719;54;20053;-66
2022/02/27 07:08:03;;;;;;;10.35;5.00;;;;;;;0.28;68.63;100316.63;2617598;54;20041;-68
2022/02/27 07:10:33;;;;;;;18.58;8.77;;;;;;;0.32;69.10;100320.72;2617793;54;20061;-68
2022/02/27 07:13:03;;;;;;;10.48;4.82;;;;;;;0.40;68.61;100321.09;2619110;39;20423;-67
2022/02/27 07:15:33;;;;;;;9.02;4.45;;;;;;;0.46;68.82;100326.78;2617761;47;20023;-68
2022/02/27 07:18:02;;;;;;;10.88;4.95;;;;;;;0.53;68.83;100322.06;2618386;54;20023;-67
2022/02/27 07:20:32;;;;;;;10.57;5.03;;;;;;;0.61;68.51;100329.41;2618596;54;20039;-67
2022/02/27 07:23:05;;;;;;;10.52;4.60;;;;;;;0.65;68.42;100328.28;2618092;54;20035;-67
2022/02/27 07:25:35;;;;;;;9.52;4.53;;;;;;;0.69;68.39;100327.16;2618086;47;20023;-67
2022/02/27 07:28:05;;;;;;;11.95;4.78;;;;;;;0.74;68.54;100331.19;2618982;39;20430;-67
2022/02/27 07:30:35;;;;;;;14.80;5.00;;;;;;;0.83;68.34;100332.38;2618839;54;20034;-67
2022/02/27 07:33:04;;;;;;;14.38;5.47;;;;;;;0.94;68.29;100332.59;2618909;39;20094;-67
2022/02/27 07:35:34;;;;;;;14.23;5.25;;;;;;;1.05;68.18;100337.13;2618489;54;20042;-67
2022/02/27 07:38:06;;;;;;;13.95;5.10;;;;;;;1.15;68.24;100337.41;2618968;39;20434;-68
2022/02/27 07:40:36;;;;;;;12.23;5.53;;;;;;;1.27;67.87;100338.41;2618922;39;20465;-68
2022/02/27 07:43:05;;;;;;;9.35;5.32;;;;;;;1.35;67.32;100339.59;2617694;54;20876;-68
2022/02/27 07:45:35;;;;;;;11.32;5.60;;;;;;;1.46;68.01;100344.94;2618152;54;20595;-68
2022/02/27 07:48:05;;;;;;;15.15;6.30;;;;;;;1.57;67.13;100343.44;2617539;54;20633;-68
2022/02/27 07:50:36;;;;;;;11.45;6.05;;;;;;;1.63;66.99;100341.31;2618429;54;20030;-68
2022/02/27 07:53:08;;;;;;;9.38;5.22;;;;;;;1.74;66.89;100345.81;2618422;54;20034;-67
2022/02/27 07:55:38;;;;;;;11.85;5.65;;;;;;;1.84;66.33;100341.69;2618396;54;20030;-68
2022/02/27 07:58:11;;;;;;;13.05;5.55;;;;;;;1.93;66.38;100340.25;2617793;47;20026;-68
2022/02/27 08:00:40;;;;;;;10.55;4.72;;;;;;;2.04;66.11;100342.13;2617737;54;20579;-68
2022/02/27 08:03:10;;;;;;;14.07;6.07;;;;;;;2.08;65.35;100338.41;2618377;54;20030;-69
2022/02/27 08:05:40;;;;;;;9.77;5.80;;;;;;;2.15;65.72;100340.50;2625138;54;20528;-69
2022/02/27 08:08:12;;;;;;;16.08;5.88;;;;;;;2.23;65.54;100330.41;2626566;54;20041;-68
2022/02/27 08:10:42;;;;;;;16.25;6.68;;;;;;;2.32;65.44;100339.38;2626069;54;20038;-68
2022/02/27 08:13:11;;;;;;;11.30;5.47;;;;;;;2.42;64.67;100335.22;2621152;54;20039;-67
2022/02/27 08:15:41;;;;;;;11.70;5.63;;;;;;;2.48;65.11;100334.81;2618506;54;20558;-68
2022/02/27 08:18:11;;;;;;;11.52;5.60;;;;;;;2.60;64.46;100342.75;2618187;54;20827;-67
2022/02/27 08:20:41;;;;;;;9.88;5.43;;;;;;;2.67;64.16;100346.63;2618363;54;20039;-67
2022/02/27 08:23:14;;;;;;;10.10;5.55;;;;;;;2.77;64.28;100329.38;2618212;54;20031;-66
2022/02/27 08:25:43;;;;;;;11.73;5.38;;;;;;;2.93;63.28;100337.81;2618247;54;20117;-66
2022/02/27 08:28:13;;;;;;;10.23;4.80;;;;;;;3.04;62.78;100331.88;2617808;54;20065;-67
2022/02/27 08:30:43;;;;;;;11.13;5.00;;;;;;;3.12;62.12;100333.94;2618129;54;20556;-66
2022/02/27 08:33:12;;;;;;;10.60;4.40;;;;;;;3.19;62.22;100327.34;2617463;47;20584;-66
2022/02/27 08:35:42;;;;;;;8.48;5.32;;;;;;;3.23;62.04;100334.03;2618022;54;20035;-65
2022/02/27 08:38:14;;;;;;;15.93;5.85;;;;;;;3.33;61.89;100339.44;2617615;47;20047;-67
2022/02/27 08:40:44;;;;;;;9.57;5.50;;;;;;;3.41;61.66;100332.72;2618159;54;20038;-66
2022/02/27 08:43:13;;;;;;;7.75;4.82;;;;;;;3.52;61.01;100334.56;2618249;54;20039;-66
2022/02/27 08:45:43;;;;;;;10.25;5.03;;;;;;;3.63;60.75;100333.78;2618322;46;20041;-66
2022/02/27 08:48:13;;;;;;;8.88;4.45;;;;;;;3.70;60.81;100314.09;2618125;54;20069;-66
2022/02/27 08:50:43;;;;;;;6.88;4.35;;;;;;;3.83;59.98;100332.34;2618072;54;20042;-66
2022/02/27 08:53:15;;;;;;;12.13;4.65;;;;;;;3.92;59.38;100332.50;2618454;54;20045;-65
2022/02/27 08:55:45;;;;;;;10.07;4.53;;;;;;;4.02;58.85;100331.84;2618156;54;20043;-66
2022/02/27 08:58:14;;;;;;;8.35;3.92;;;;;;;4.08;58.51;100326.13;2618268;54;20034;-67
2022/02/27 09:00:45;;;;;;;11.43;6.07;;;;;;;4.15;58.28;100329.97;2618021;54;20118;-67
2022/02/27 09:03:17;;;;;;;8.50;5.00;;;;;;;4.23;57.77;100327.63;2618199;54;20146;-67
2022/02/27 09:05:47;;;;;;;13.32;5.03;;;;;;;4.32;57.66;100323.47;2618336;54;20030;-67
2022/02/27 09:08:19;;;;;;;7.90;4.85;;;;;;;4.37;57.66;100326.59;2620870;54;20037;-67
2022/02/27 09:10:49;;;;;;;9.75;4.10;;;;;;;4.47;56.81;100322.31;2622647;54;20034;-67
2022/02/27 09:13:19;;;;;;;4.50;3.70;;;;;;;4.62;55.56;100325.56;2622106;54;20035;-66
2022/02/27 09:15:49;;;;;;;7.57;4.00;;;;;;;4.62;55.92;100325.56;2622277;54;20034;-66
2022/02/27 09:18:22;;;;;;;12.05;4.35;;;;;;;4.70;55.29;100325.81;2622286;54;20026;-66
2022/02/27 09:20:51;;;;;;;7.70;4.25;;;;;;;4.77;55.30;100319.13;2618987;47;20038;-66
2022/02/27 09:23:24;;;;;;;9.13;4.53;;;;;;;4.84;54.57;100319.50;2619247;31;20507;-67
2022/02/27 09:25:53;;;;;;;7.82;4.85;;;;;;;4.90;54.41;100330.34;2618085;54;20544;-67
2022/02/27 09:28:43;;;;;;;5.68;3.75;;;;;;;4.97;54.20;100325.44;2618171;54;20683;-66
2022/02/27 09:31:13;;;;;;;9.32;4.97;;;;;;;5.02;54.83;100323.31;2618213;54;20811;-66
2022/02/27 09:33:43;;;;;;;8.35;3.85;;;;;;;5.16;53.31;100324.84;2617265;47;20109;-66
2022/02/27 09:36:13;;;;;;;5.85;3.85;;;;;;;5.21;53.55;100333.19;2618008;39;20391;-66
2022/02/27 09:38:46;;;;;;;6.18;4.15;;;;;;;5.28;53.50;100328.31;2617237;54;20294;-66
2022/02/27 09:41:15;;;;;;;7.95;4.18;;;;;;;5.38;52.42;100327.44;2617847;54;20038;-68
2022/02/27 09:43:53;;;;;;;4.22;3.00;;;;;;;5.47;51.81;100324.09;2617942;54;20026;-67
2022/02/27 09:46:23;;;;;;;7.75;3.72;;;;;;;5.55;51.22;100325.25;2617838;54;20038;-68
2022/02/27 09:48:53;;;;;;;11.15;5.93;;;;;;;5.61;51.36;100328.22;2617548;47;20034;-67
2022/02/27 09:51:23;;;;;;;6.47;3.67;;;;;;;5.75;49.96;100326.28;2618249;54;20049;-66
2022/02/27 09:53:56;;;;;;;10.75;4.28;;;;;;;5.72;50.68;100325.56;2618088;54;20051;-66
2022/02/27 09:56:25;;;;;;;6.70;4.25;;;;;;;5.81;49.98;100333.66;2617387;54;20031;-66
2022/02/27 09:58:56;;;;;;;5.80;3.67;;;;;;;5.91;49.54;100331.94;2617972;54;20031;-66
2022/02/27 10:01:26;;;;;;;8.23;3.70;;;;;;;5.98;49.30;100337.56;2617855;54;20057;-67
2022/02/27 10:03:56;;;;;;;7.75;3.53;;;;;;;6.05;48.58;100330.84;2617122;54;20050;-65
2022/02/27 10:06:26;;;;;;;5.53;3.53;;;;;;;6.08;47.97;100334.06;2617922;54;20053;-69
2022/02/27 10:09:00;;;;;;;8.32;4.47;;;;;;;6.11;48.34;100332.97;2618150;54;20030;-66
2022/02/27 10:11:29;;;;;;;9.07;5.15;;;;;;;6.14;48.21;100330.09;2618210;39;20417;-66
2022/02/27 10:13:59;;;;;;;6.50;3.25;;;;;;;6.19;46.91;100320.88;2617130;47;20038;-65
2022/02/27 10:16:31;;;;;;;10.10;3.78;;;;;;;6.21;46.95;100328.63;2617835;54;20041;-64
2022/02/27 10:19:04;;;;;;;5.30;3.50;;;;;;;6.24;48.06;100323.09;2617895;54;20034;-65
2022/02/27 10:21:36;;;;;;;6.50;4.05;;;;;;;6.34;46.40;100316.13;2617984;54;20029;-65
2022/02/27 10:24:26;;;;;;;6.65;3.58;;;;;;;6.34;46.27;100324.03;2618240;46;20046;-66
2022/02/27 10:26:55;;;;;;;5.22;2.88;;;;;;;6.40;45.52;100320.03;2617890;54;20038;-67
2022/02/27 10:29:27;;;;;;;5.18;3.58;;;;;;;6.44;45.40;100321.44;2618175;39;20478;-67
2022/02/27 10:31:58;;;;;;;7.35;4.30;;;;;;;6.44;45.08;100317.00;2617850;54;20043;-67
2022/02/27 10:34:33;;;;;;;8.10;4.80;;;;;;;6.48;45.25;100314.13;2617638;54;20041;-67
2022/02/27 10:37:06;;;;;;;6.68;3.50;;;;;;;6.55;44.66;100320.56;2618011;54;20030;-68
2022/02/27 10:39:43;;;;;;;7.30;3.85;;;;;;;6.57;44.39;100316.84;2617510;54;20034;-68
2022/02/27 10:42:16;;;;;;;23.20;12.20;;;;;;;6.66;44.02;100312.59;2623410;54;20106;-68
2022/02/27 10:44:53;;;;;;;6.35;3.97;;;;;;;6.66;44.08;100307.34;2622558;54;20034;-66
2022/02/27 10:47:26;;;;;;;7.43;3.70;;;;;;;6.74;44.32;100307.53;2624347;54;20026;-67
2022/02/27 10:50:01;;;;;;;5.10;3.10;;;;;;;6.88;42.69;100306.31;2621541;54;20045;-66
2022/02/27 10:52:33;;;;;;;6.22;3.50;;;;;;;6.86;42.42;100305.63;2621388;54;20070;-66
2022/02/27 10:55:09;;;;;;;8.13;3.78;;;;;;;6.92;41.54;100292.78;2620904;54;20034;-66
2022/02/27 10:57:41;;;;;;;5.80;4.25;;;;;;;6.92;42.29;100295.41;2621818;39;20429;-65
2022/02/27 11:00:18;;;;;;;5.20;3.05;;;;;;;6.99;41.04;100285.19;2622359;54;20122;-66
2022/02/27 11:02:49;;;;;;;5.55;3.55;;;;;;;6.94;41.79;100271.63;2622247;54;20027;-66
2022/02/27 11:05:21;;;;;;;5.80;3.28;;;;;;;7.01;40.80;100290.31;2622313;54;20030;-66
2022/02/27 11:07:55;;;;;;;4.47;2.67;;;;;;;6.99;40.75;100273.84;2622081;54;20034;-66
2022/02/27 11:10:29;;;;;;;4.40;3.00;;;;;;;6.98;41.25;100267.78;2621422;54;20027;-66
2022/02/27 11:13:02;;;;;;;4.15;3.25;;;;;;;7.05;41.49;100279.41;2621092;54;20073;-66
2022/02/27 11:15:32;;;;;;;4.90;3.20;;;;;;;7.13;41.60;100270.84;2618157;47;20030;-66
2022/02/27 11:18:02;;;;;;;5.22;3.33;;;;;;;7.16;41.58;100265.31;2618093;51;20038;-67
2022/02/27 11:20:32;;;;;;;5.90;3.20;;;;;;;7.19;41.83;100265.06;2625215;54;20026;-67
2022/02/27 11:23:01;;;;;;;4.55;2.90;;;;;;;7.31;41.08;100266.59;2625979;54;20056;-67
2022/02/27 11:25:34;;;;;;;6.55;3.20;;;;;;;7.40;40.94;100260.53;2625735;54;20545;-67
2022/02/27 11:28:10;;;;;;;4.75;3.72;;;;;;;7.42;40.15;100258.56;2625420;49;20027;-66
2022/02/27 11:30:42;;;;;;;5.55;3.80;;;;;;;7.44;39.90;100245.28;2625664;54;20038;-66
2022/02/27 11:33:17;;;;;;;6.43;3.35;;;;;;;7.49;39.85;100256.22;2625260;54;20034;-67
2022/02/27 11:35:49;;;;;;;4.97;3.00;;;;;;;7.50;39.28;100257.88;2623802;54;20131;-66
2022/02/27 11:38:20;;;;;;;3.88;2.65;;;;;;;7.52;38.73;100247.25;2625825;54;20576;-67
2022/02/27 11:40:57;;;;;;;4.78;2.58;;;;;;;7.50;37.88;100250.00;2623616;54;20039;-66
2022/02/27 11:43:50;;;;;;;5.45;3.10;;;;;;;7.45;37.97;100239.06;2624710;54;20034;-68